sensor_id;sensor_type;location;lat;lon;timestamp;temperature;humidity
27314;DHT22;14800;48.174;9.798;2023-04-24T00:01:24;12.60;82.20
27314;DHT22;14800;48.174;9.798;2023-04-24T00:03:49;12.60;82.10
27314;DHT22;14800;48.174;9.798;2023-04-24T00:06:15;12.60;83.20
27314;DHT22;14800;48.174;9.798;2023-04-24T00:08:42;12.60;82.20
27314;DHT22;14800;48.174;9.798;2023-04-24T00:11:08;12.70;82.30
27314;DHT22;14800;48.174;9.798;2023-04-24T00:13:35;12.60;82.20
27314;DHT22;14800;48.174;9.798;2023-04-24T00:16:00;12.70;82.40
27314;DHT22;14800;48.174;9.798;2023-04-24T00:18:26;12.70;83.10
27314;DHT22;14800;48.174;9.798;2023-04-24T00:20:51;12.70;82.10
27314;DHT22;14800;48.174;9.798;2023-04-24T00:23:17;12.70;82.40
27314;DHT22;14800;48.174;9.798;2023-04-24T00:25:43;12.70;82.20
27314;DHT22;14800;48.174;9.798;2023-04-24T00:28:08;12.70;82.20
27314;DHT22;14800;48.174;9.798;2023-04-24T00:30:34;12.70;82.10
27314;DHT22;14800;48.174;9.798;2023-04-24T00:33:00;12.70;82.20
27314;DHT22;14800;48.174;9.798;2023-04-24T00:35:25;12.70;82.30
27314;DHT22;14800;48.174;9.798;2023-04-24T00:37:51;12.70;82.30
27314;DHT22;14800;48.174;9.798;2023-04-24T00:40:16;12.70;82.40
27314;DHT22;14800;48.174;9.798;2023-04-24T00:42:43;12.70;82.20
27314;DHT22;14800;48.174;9.798;2023-04-24T00:45:09;12.70;82.20
27314;DHT22;14800;48.174;9.798;2023-04-24T00:47:35;12.70;81.90
27314;DHT22;14800;48.174;9.798;2023-04-24T00:50:05;12.70;81.90
27314;DHT22;14800;48.174;9.798;2023-04-24T00:52:31;12.60;81.80
27314;DHT22;14800;48.174;9.798;2023-04-24T00:54:58;12.60;81.80
27314;DHT22;14800;48.174;9.798;2023-04-24T00:57:24;12.60;82.00
27314;DHT22;14800;48.174;9.798;2023-04-24T00:59:51;12.70;81.90
27314;DHT22;14800;48.174;9.798;2023-04-24T01:02:17;12.70;82.10
27314;DHT22;14800;48.174;9.798;2023-04-24T01:04:43;12.60;81.80
27314;DHT22;14800;48.174;9.798;2023-04-24T01:07:08;12.60;81.60
27314;DHT22;14800;48.174;9.798;2023-04-24T01:09:38;12.60;81.60
27314;DHT22;14800;48.174;9.798;2023-04-24T01:12:06;12.60;81.70
27314;DHT22;14800;48.174;9.798;2023-04-24T01:14:33;12.60;81.50
27314;DHT22;14800;48.174;9.798;2023-04-24T01:16:58;12.60;81.50
27314;DHT22;14800;48.174;9.798;2023-04-24T01:19:24;12.70;81.60
27314;DHT22;14800;48.174;9.798;2023-04-24T01:21:51;12.60;81.60
27314;DHT22;14800;48.174;9.798;2023-04-24T01:24:19;12.60;81.70
27314;DHT22;14800;48.174;9.798;2023-04-24T01:26:45;12.60;81.50
27314;DHT22;14800;48.174;9.798;2023-04-24T01:29:11;12.60;81.60
27314;DHT22;14800;48.174;9.798;2023-04-24T01:31:37;12.60;81.70
27314;DHT22;14800;48.174;9.798;2023-04-24T01:34:04;12.60;81.70
27314;DHT22;14800;48.174;9.798;2023-04-24T01:36:30;12.60;81.60
27314;DHT22;14800;48.174;9.798;2023-04-24T01:38:57;12.60;81.70
27314;DHT22;14800;48.174;9.798;2023-04-24T01:41:24;12.50;81.50
27314;DHT22;14800;48.174;9.798;2023-04-24T01:43:50;12.50;81.60
27314;DHT22;14800;48.174;9.798;2023-04-24T01:46:16;12.50;81.70
27314;DHT22;14800;48.174;9.798;2023-04-24T01:48:42;12.50;81.80
27314;DHT22;14800;48.174;9.798;2023-04-24T01:51:08;12.50;81.90
27314;DHT22;14800;48.174;9.798;2023-04-24T01:53:33;12.50;81.80
27314;DHT22;14800;48.174;9.798;2023-04-24T01:56:01;12.40;81.80
27314;DHT22;14800;48.174;9.798;2023-04-24T01:58:27;12.40;82.00
27314;DHT22;14800;48.174;9.798;2023-04-24T02:00:52;12.40;82.00
27314;DHT22;14800;48.174;9.798;2023-04-24T02:03:18;12.30;81.90
27314;DHT22;14800;48.174;9.798;2023-04-24T02:05:44;12.30;82.10
27314;DHT22;14800;48.174;9.798;2023-04-24T02:08:10;12.30;82.10
27314;DHT22;14800;48.174;9.798;2023-04-24T02:10:36;12.30;82.20
27314;DHT22;14800;48.174;9.798;2023-04-24T02:13:01;12.30;82.40
27314;DHT22;14800;48.174;9.798;2023-04-24T02:15:27;12.30;82.30
27314;DHT22;14800;48.174;9.798;2023-04-24T02:17:53;12.30;82.40
27314;DHT22;14800;48.174;9.798;2023-04-24T02:20:19;12.20;82.50
27314;DHT22;14800;48.174;9.798;2023-04-24T02:22:44;12.20;82.60
27314;DHT22;14800;48.174;9.798;2023-04-24T02:25:10;12.20;82.70
27314;DHT22;14800;48.174;9.798;2023-04-24T02:27:36;12.20;82.80
27314;DHT22;14800;48.174;9.798;2023-04-24T02:30:01;12.20;82.90
27314;DHT22;14800;48.174;9.798;2023-04-24T02:32:28;12.10;83.00
27314;DHT22;14800;48.174;9.798;2023-04-24T02:34:53;12.10;83.10
27314;DHT22;14800;48.174;9.798;2023-04-24T02:37:19;12.10;83.00
27314;DHT22;14800;48.174;9.798;2023-04-24T02:39:45;12.10;83.10
27314;DHT22;14800;48.174;9.798;2023-04-24T02:42:10;12.10;83.40
27314;DHT22;14800;48.174;9.798;2023-04-24T02:44:36;12.00;83.20
27314;DHT22;14800;48.174;9.798;2023-04-24T02:47:01;12.00;83.40
27314;DHT22;14800;48.174;9.798;2023-04-24T02:49:27;12.00;83.40
27314;DHT22;14800;48.174;9.798;2023-04-24T02:51:52;12.00;83.40
27314;DHT22;14800;48.174;9.798;2023-04-24T02:54:18;12.00;83.50
27314;DHT22;14800;48.174;9.798;2023-04-24T02:56:43;12.00;83.60
27314;DHT22;14800;48.174;9.798;2023-04-24T02:59:09;12.00;83.50
27314;DHT22;14800;48.174;9.798;2023-04-24T03:01:35;11.90;83.70
27314;DHT22;14800;48.174;9.798;2023-04-24T03:04:01;11.90;83.80
27314;DHT22;14800;48.174;9.798;2023-04-24T03:06:27;11.90;83.70
27314;DHT22;14800;48.174;9.798;2023-04-24T03:08:53;11.90;83.80
27314;DHT22;14800;48.174;9.798;2023-04-24T03:11:19;11.90;83.90
27314;DHT22;14800;48.174;9.798;2023-04-24T03:13:45;11.90;84.00
27314;DHT22;14800;48.174;9.798;2023-04-24T03:16:11;11.90;84.10
27314;DHT22;14800;48.174;9.798;2023-04-24T03:18:36;11.90;84.10
27314;DHT22;14800;48.174;9.798;2023-04-24T03:21:02;11.90;84.10
27314;DHT22;14800;48.174;9.798;2023-04-24T03:23:28;11.90;84.10
27314;DHT22;14800;48.174;9.798;2023-04-24T03:25:54;11.90;84.10
27314;DHT22;14800;48.174;9.798;2023-04-24T03:28:20;11.80;84.20
27314;DHT22;14800;48.174;9.798;2023-04-24T03:30:46;11.80;84.40
27314;DHT22;14800;48.174;9.798;2023-04-24T03:33:11;11.90;84.50
27314;DHT22;14800;48.174;9.798;2023-04-24T03:35:37;11.90;84.50
27314;DHT22;14800;48.174;9.798;2023-04-24T03:38:02;11.90;84.50
27314;DHT22;14800;48.174;9.798;2023-04-24T03:40:30;11.90;84.30
27314;DHT22;14800;48.174;9.798;2023-04-24T03:42:55;11.90;84.30
27314;DHT22;14800;48.174;9.798;2023-04-24T03:45:21;11.90;84.10
27314;DHT22;14800;48.174;9.798;2023-04-24T03:47:46;11.90;84.20
27314;DHT22;14800;48.174;9.798;2023-04-24T03:50:12;11.90;84.00
27314;DHT22;14800;48.174;9.798;2023-04-24T03:52:37;11.90;84.00
27314;DHT22;14800;48.174;9.798;2023-04-24T03:55:04;11.90;84.00
27314;DHT22;14800;48.174;9.798;2023-04-24T03:57:31;11.90;84.00
27314;DHT22;14800;48.174;9.798;2023-04-24T03:59:57;11.90;83.90
27314;DHT22;14800;48.174;9.798;2023-04-24T04:02:22;11.90;83.80
27314;DHT22;14800;48.174;9.798;2023-04-24T04:04:48;11.90;83.70
27314;DHT22;14800;48.174;9.798;2023-04-24T04:07:13;12.00;83.60
27314;DHT22;14800;48.174;9.798;2023-04-24T04:09:39;12.00;83.50
27314;DHT22;14800;48.174;9.798;2023-04-24T04:12:05;12.00;83.40
27314;DHT22;14800;48.174;9.798;2023-04-24T04:14:30;11.90;83.30
27314;DHT22;14800;48.174;9.798;2023-04-24T04:16:56;12.00;83.20
27314;DHT22;14800;48.174;9.798;2023-04-24T04:19:21;11.90;83.10
27314;DHT22;14800;48.174;9.798;2023-04-24T04:21:47;11.90;83.00
27314;DHT22;14800;48.174;9.798;2023-04-24T04:24:18;12.00;83.00
27314;DHT22;14800;48.174;9.798;2023-04-24T04:26:44;12.00;82.90
27314;DHT22;14800;48.174;9.798;2023-04-24T04:29:12;11.90;82.90
27314;DHT22;14800;48.174;9.798;2023-04-24T04:31:38;11.90;82.90
27314;DHT22;14800;48.174;9.798;2023-04-24T04:34:03;11.90;82.90
27314;DHT22;14800;48.174;9.798;2023-04-24T04:36:29;11.90;82.90
27314;DHT22;14800;48.174;9.798;2023-04-24T04:38:54;11.90;82.80
27314;DHT22;14800;48.174;9.798;2023-04-24T04:41:22;11.90;82.80
27314;DHT22;14800;48.174;9.798;2023-04-24T04:43:47;11.90;82.80
27314;DHT22;14800;48.174;9.798;2023-04-24T04:46:13;11.90;82.70
27314;DHT22;14800;48.174;9.798;2023-04-24T04:48:39;11.90;82.70
27314;DHT22;14800;48.174;9.798;2023-04-24T04:51:05;11.80;82.70
27314;DHT22;14800;48.174;9.798;2023-04-24T04:53:30;11.80;82.60
27314;DHT22;14800;48.174;9.798;2023-04-24T04:55:56;11.80;82.60
27314;DHT22;14800;48.174;9.798;2023-04-24T04:58:22;11.80;82.40
27314;DHT22;14800;48.174;9.798;2023-04-24T05:00:47;11.80;82.30
27314;DHT22;14800;48.174;9.798;2023-04-24T05:03:13;11.80;82.40
27314;DHT22;14800;48.174;9.798;2023-04-24T05:05:39;11.80;82.20
27314;DHT22;14800;48.174;9.798;2023-04-24T05:08:07;11.80;82.10
27314;DHT22;14800;48.174;9.798;2023-04-24T05:10:32;11.80;82.20
27314;DHT22;14800;48.174;9.798;2023-04-24T05:12:58;11.70;82.00
27314;DHT22;14800;48.174;9.798;2023-04-24T05:15:24;11.70;82.10
27314;DHT22;14800;48.174;9.798;2023-04-24T05:17:49;11.70;82.10
27314;DHT22;14800;48.174;9.798;2023-04-24T05:20:15;11.70;82.00
27314;DHT22;14800;48.174;9.798;2023-04-24T05:22:41;11.70;82.00
27314;DHT22;14800;48.174;9.798;2023-04-24T05:25:07;11.80;82.10
27314;DHT22;14800;48.174;9.798;2023-04-24T05:27:33;11.70;82.00
27314;DHT22;14800;48.174;9.798;2023-04-24T05:29:58;11.70;82.00
27314;DHT22;14800;48.174;9.798;2023-04-24T05:32:24;11.60;82.00
27314;DHT22;14800;48.174;9.798;2023-04-24T05:34:50;11.70;82.20
27314;DHT22;14800;48.174;9.798;2023-04-24T05:37:15;11.70;82.00
27314;DHT22;14800;48.174;9.798;2023-04-24T05:39:41;11.70;82.10
27314;DHT22;14800;48.174;9.798;2023-04-24T05:42:06;11.60;82.20
27314;DHT22;14800;48.174;9.798;2023-04-24T05:44:32;11.60;82.20
27314;DHT22;14800;48.174;9.798;2023-04-24T05:46:58;11.70;82.20
27314;DHT22;14800;48.174;9.798;2023-04-24T05:49:23;11.60;82.10
27314;DHT22;14800;48.174;9.798;2023-04-24T05:51:49;11.70;82.30
27314;DHT22;14800;48.174;9.798;2023-04-24T05:54:14;11.70;82.30
27314;DHT22;14800;48.174;9.798;2023-04-24T05:56:40;11.70;82.30
27314;DHT22;14800;48.174;9.798;2023-04-24T05:59:06;11.70;82.30
27314;DHT22;14800;48.174;9.798;2023-04-24T06:01:32;11.70;82.40
27314;DHT22;14800;48.174;9.798;2023-04-24T06:03:58;11.70;82.40
27314;DHT22;14800;48.174;9.798;2023-04-24T06:06:24;11.70;82.40
27314;DHT22;14800;48.174;9.798;2023-04-24T06:08:49;11.70;82.40
27314;DHT22;14800;48.174;9.798;2023-04-24T06:11:15;11.70;80.20
27314;DHT22;14800;48.174;9.798;2023-04-24T06:13:41;11.60;78.00
27314;DHT22;14800;48.174;9.798;2023-04-24T06:16:06;11.40;77.70
27314;DHT22;14800;48.174;9.798;2023-04-24T06:18:32;11.20;77.80
27314;DHT22;14800;48.174;9.798;2023-04-24T06:20:57;10.90;78.60
27314;DHT22;14800;48.174;9.798;2023-04-24T06:23:23;10.70;79.50
27314;DHT22;14800;48.174;9.798;2023-04-24T06:25:49;10.50;80.20
27314;DHT22;14800;48.174;9.798;2023-04-24T06:28:15;10.30;81.30
27314;DHT22;14800;48.174;9.798;2023-04-24T06:30:40;10.20;81.90
27314;DHT22;14800;48.174;9.798;2023-04-24T06:33:06;10.00;82.60
27314;DHT22;14800;48.174;9.798;2023-04-24T06:35:32;9.90;83.20
27314;DHT22;14800;48.174;9.798;2023-04-24T06:37:57;9.90;83.60
27314;DHT22;14800;48.174;9.798;2023-04-24T06:40:23;9.80;84.10
27314;DHT22;14800;48.174;9.798;2023-04-24T06:42:48;9.80;84.40
27314;DHT22;14800;48.174;9.798;2023-04-24T06:45:14;9.70;84.50
27314;DHT22;14800;48.174;9.798;2023-04-24T06:47:39;9.70;84.70
27314;DHT22;14800;48.174;9.798;2023-04-24T06:50:06;9.70;84.70
27314;DHT22;14800;48.174;9.798;2023-04-24T06:52:31;9.70;85.10
27314;DHT22;14800;48.174;9.798;2023-04-24T06:55:02;9.70;85.20
27314;DHT22;14800;48.174;9.798;2023-04-24T06:57:28;9.70;85.50
27314;DHT22;14800;48.174;9.798;2023-04-24T06:59:54;9.80;85.50
27314;DHT22;14800;48.174;9.798;2023-04-24T07:02:20;9.90;85.90
27314;DHT22;14800;48.174;9.798;2023-04-24T07:04:45;9.90;86.00
27314;DHT22;14800;48.174;9.798;2023-04-24T07:07:12;10.00;86.00
27314;DHT22;14800;48.174;9.798;2023-04-24T07:09:40;10.10;86.00
27314;DHT22;14800;48.174;9.798;2023-04-24T07:12:10;10.20;86.10
27314;DHT22;14800;48.174;9.798;2023-04-24T07:14:37;10.20;86.00
27314;DHT22;14800;48.174;9.798;2023-04-24T07:17:03;10.30;85.90
27314;DHT22;14800;48.174;9.798;2023-04-24T07:19:29;10.40;85.80
27314;DHT22;14800;48.174;9.798;2023-04-24T07:21:55;10.50;85.70
27314;DHT22;14800;48.174;9.798;2023-04-24T07:24:20;10.60;85.30
27314;DHT22;14800;48.174;9.798;2023-04-24T07:26:46;10.70;84.70
27314;DHT22;14800;48.174;9.798;2023-04-24T07:29:12;10.70;84.50
27314;DHT22;14800;48.174;9.798;2023-04-24T07:31:38;10.80;84.60
27314;DHT22;14800;48.174;9.798;2023-04-24T07:34:04;10.80;84.60
27314;DHT22;14800;48.174;9.798;2023-04-24T07:36:29;10.90;84.90
27314;DHT22;14800;48.174;9.798;2023-04-24T07:38:55;11.00;85.20
27314;DHT22;14800;48.174;9.798;2023-04-24T07:41:22;11.10;85.30
27314;DHT22;14800;48.174;9.798;2023-04-24T07:43:48;11.10;85.20
27314;DHT22;14800;48.174;9.798;2023-04-24T07:46:13;11.20;85.20
27314;DHT22;14800;48.174;9.798;2023-04-24T07:48:39;11.30;84.90
27314;DHT22;14800;48.174;9.798;2023-04-24T07:51:04;11.40;84.10
27314;DHT22;14800;48.174;9.798;2023-04-24T07:53:30;11.50;83.80
27314;DHT22;14800;48.174;9.798;2023-04-24T07:55:56;11.50;83.60
27314;DHT22;14800;48.174;9.798;2023-04-24T07:58:22;11.50;84.00
27314;DHT22;14800;48.174;9.798;2023-04-24T08:00:47;11.60;83.20
27314;DHT22;14800;48.174;9.798;2023-04-24T08:03:13;11.70;83.50
27314;DHT22;14800;48.174;9.798;2023-04-24T08:05:39;11.70;83.40
27314;DHT22;14800;48.174;9.798;2023-04-24T08:08:04;11.80;83.40
27314;DHT22;14800;48.174;9.798;2023-04-24T08:10:30;11.90;83.30
27314;DHT22;14800;48.174;9.798;2023-04-24T08:12:55;12.00;83.90
27314;DHT22;14800;48.174;9.798;2023-04-24T08:15:21;12.10;82.70
27314;DHT22;14800;48.174;9.798;2023-04-24T08:17:47;12.00;82.50
27314;DHT22;14800;48.174;9.798;2023-04-24T08:20:12;12.10;82.30
27314;DHT22;14800;48.174;9.798;2023-04-24T08:22:42;12.10;82.10
27314;DHT22;14800;48.174;9.798;2023-04-24T08:25:08;12.20;81.70
27314;DHT22;14800;48.174;9.798;2023-04-24T08:27:34;12.20;81.70
27314;DHT22;14800;48.174;9.798;2023-04-24T08:30:02;12.20;81.60
27314;DHT22;14800;48.174;9.798;2023-04-24T08:32:28;12.20;80.80
27314;DHT22;14800;48.174;9.798;2023-04-24T08:34:58;12.30;80.10
27314;DHT22;14800;48.174;9.798;2023-04-24T08:37:25;12.20;79.80
27314;DHT22;14800;48.174;9.798;2023-04-24T08:39:50;12.20;79.40
27314;DHT22;14800;48.174;9.798;2023-04-24T08:42:18;12.20;79.30
27314;DHT22;14800;48.174;9.798;2023-04-24T08:44:44;12.20;79.50
27314;DHT22;14800;48.174;9.798;2023-04-24T08:47:11;12.10;79.60
27314;DHT22;14800;48.174;9.798;2023-04-24T08:49:38;12.30;80.00
27314;DHT22;14800;48.174;9.798;2023-04-24T08:52:05;12.20;80.10
27314;DHT22;14800;48.174;9.798;2023-04-24T08:54:32;12.20;80.60
27314;DHT22;14800;48.174;9.798;2023-04-24T08:57:00;12.30;80.60
27314;DHT22;14800;48.174;9.798;2023-04-24T08:59:31;12.30;81.00
27314;DHT22;14800;48.174;9.798;2023-04-24T09:01:57;12.40;81.20
27314;DHT22;14800;48.174;9.798;2023-04-24T09:04:24;12.50;78.40
27314;DHT22;14800;48.174;9.798;2023-04-24T09:06:57;12.50;76.10
27314;DHT22;14800;48.174;9.798;2023-04-24T09:09:24;12.40;76.30
27314;DHT22;14800;48.174;9.798;2023-04-24T09:11:51;12.30;76.30
27314;DHT22;14800;48.174;9.798;2023-04-24T09:14:19;12.20;76.70
27314;DHT22;14800;48.174;9.798;2023-04-24T09:16:45;12.00;77.40
27314;DHT22;14800;48.174;9.798;2023-04-24T09:19:11;11.80;78.20
27314;DHT22;14800;48.174;9.798;2023-04-24T09:21:36;11.70;79.30
27314;DHT22;14800;48.174;9.798;2023-04-24T09:24:06;11.60;80.00
27314;DHT22;14800;48.174;9.798;2023-04-24T09:26:35;11.50;80.50
27314;DHT22;14800;48.174;9.798;2023-04-24T09:29:01;11.40;81.80
27314;DHT22;14800;48.174;9.798;2023-04-24T09:31:28;11.40;82.70
27314;DHT22;14800;48.174;9.798;2023-04-24T09:34:02;11.40;83.30
27314;DHT22;14800;48.174;9.798;2023-04-24T09:36:36;11.40;85.20
27314;DHT22;14800;48.174;9.798;2023-04-24T09:39:07;11.50;84.60
27314;DHT22;14800;48.174;9.798;2023-04-24T09:41:35;11.60;82.90
27314;DHT22;14800;48.174;9.798;2023-04-24T09:44:18;11.70;83.00
27314;DHT22;14800;48.174;9.798;2023-04-24T09:46:46;11.80;82.30
27314;DHT22;14800;48.174;9.798;2023-04-24T09:49:15;11.90;81.30
27314;DHT22;14800;48.174;9.798;2023-04-24T09:51:42;11.90;80.80
27314;DHT22;14800;48.174;9.798;2023-04-24T09:54:21;12.10;79.70
27314;DHT22;14800;48.174;9.798;2023-04-24T09:56:48;12.10;79.40
27314;DHT22;14800;48.174;9.798;2023-04-24T09:59:19;12.10;78.70
27314;DHT22;14800;48.174;9.798;2023-04-24T10:01:45;12.10;78.10
27314;DHT22;14800;48.174;9.798;2023-04-24T10:04:21;12.10;77.10
27314;DHT22;14800;48.174;9.798;2023-04-24T10:06:48;12.20;77.80
27314;DHT22;14800;48.174;9.798;2023-04-24T10:09:15;12.20;76.70
27314;DHT22;14800;48.174;9.798;2023-04-24T10:11:42;12.30;76.50
27314;DHT22;14800;48.174;9.798;2023-04-24T10:14:21;12.50;76.60
27314;DHT22;14800;48.174;9.798;2023-04-24T10:16:48;12.50;74.90
27314;DHT22;14800;48.174;9.798;2023-04-24T10:19:15;12.70;70.60
27314;DHT22;14800;48.174;9.798;2023-04-24T10:21:43;12.80;71.40
27314;DHT22;14800;48.174;9.798;2023-04-24T10:24:15;12.90;71.50
27314;DHT22;14800;48.174;9.798;2023-04-24T10:26:42;13.10;67.70
27314;DHT22;14800;48.174;9.798;2023-04-24T10:29:08;13.20;68.00
27314;DHT22;14800;48.174;9.798;2023-04-24T10:31:36;13.30;67.90
27314;DHT22;14800;48.174;9.798;2023-04-24T10:34:04;13.50;65.80
27314;DHT22;14800;48.174;9.798;2023-04-24T10:36:31;13.60;64.10
27314;DHT22;14800;48.174;9.798;2023-04-24T10:39:00;13.70;62.60
27314;DHT22;14800;48.174;9.798;2023-04-24T10:41:26;13.70;63.20
27314;DHT22;14800;48.174;9.798;2023-04-24T10:46:30;13.80;62.30
27314;DHT22;14800;48.174;9.798;2023-04-24T10:48:56;13.80;63.20
27314;DHT22;14800;48.174;9.798;2023-04-24T10:51:24;13.70;64.30
27314;DHT22;14800;48.174;9.798;2023-04-24T10:53:50;13.70;63.80
27314;DHT22;14800;48.174;9.798;2023-04-24T10:56:16;13.70;62.70
27314;DHT22;14800;48.174;9.798;2023-04-24T10:58:44;13.70;62.30
27314;DHT22;14800;48.174;9.798;2023-04-24T11:03:57;13.70;61.40
27314;DHT22;14800;48.174;9.798;2023-04-24T11:06:33;13.70;62.20
27314;DHT22;14800;48.174;9.798;2023-04-24T11:09:08;13.80;62.00
27314;DHT22;14800;48.174;9.798;2023-04-24T11:11:36;13.80;61.70
27314;DHT22;14800;48.174;9.798;2023-04-24T11:14:04;13.80;60.60
27314;DHT22;14800;48.174;9.798;2023-04-24T11:19:06;13.90;61.50
27314;DHT22;14800;48.174;9.798;2023-04-24T11:24:30;14.10;61.70
27314;DHT22;14800;48.174;9.798;2023-04-24T11:27:20;14.20;60.50
27314;DHT22;14800;48.174;9.798;2023-04-24T11:34:52;14.50;61.50
27314;DHT22;14800;48.174;9.798;2023-04-24T11:37:18;14.50;58.60
27314;DHT22;14800;48.174;9.798;2023-04-24T11:39:44;14.60;60.00
27314;DHT22;14800;48.174;9.798;2023-04-24T11:42:09;14.60;59.00
27314;DHT22;14800;48.174;9.798;2023-04-24T11:44:36;14.60;58.80
27314;DHT22;14800;48.174;9.798;2023-04-24T11:47:05;14.60;59.00
27314;DHT22;14800;48.174;9.798;2023-04-24T11:49:32;14.60;58.50
27314;DHT22;14800;48.174;9.798;2023-04-24T11:51:59;14.60;58.20
27314;DHT22;14800;48.174;9.798;2023-04-24T11:54:25;14.60;58.00
27314;DHT22;14800;48.174;9.798;2023-04-24T11:56:50;14.50;58.00
27314;DHT22;14800;48.174;9.798;2023-04-24T11:59:16;14.50;58.30
27314;DHT22;14800;48.174;9.798;2023-04-24T12:01:45;14.50;58.20
27314;DHT22;14800;48.174;9.798;2023-04-24T12:04:11;14.40;58.50
27314;DHT22;14800;48.174;9.798;2023-04-24T12:06:37;14.30;59.00
27314;DHT22;14800;48.174;9.798;2023-04-24T12:09:03;14.20;58.80
27314;DHT22;14800;48.174;9.798;2023-04-24T12:11:29;14.20;58.00
27314;DHT22;14800;48.174;9.798;2023-04-24T12:13:54;14.20;58.30
27314;DHT22;14800;48.174;9.798;2023-04-24T12:16:20;14.10;58.80
27314;DHT22;14800;48.174;9.798;2023-04-24T12:18:46;14.00;58.90
27314;DHT22;14800;48.174;9.798;2023-04-24T12:21:16;14.00;58.90
27314;DHT22;14800;48.174;9.798;2023-04-24T12:23:43;13.90;59.30
27314;DHT22;14800;48.174;9.798;2023-04-24T12:26:10;13.80;58.80
27314;DHT22;14800;48.174;9.798;2023-04-24T12:28:36;13.80;58.70
27314;DHT22;14800;48.174;9.798;2023-04-24T12:31:02;13.70;58.20
27314;DHT22;14800;48.174;9.798;2023-04-24T12:33:33;13.70;58.90
27314;DHT22;14800;48.174;9.798;2023-04-24T12:35:59;13.70;56.90
27314;DHT22;14800;48.174;9.798;2023-04-24T12:38:28;13.60;58.10
27314;DHT22;14800;48.174;9.798;2023-04-24T12:41:09;13.70;57.80
27314;DHT22;14800;48.174;9.798;2023-04-24T12:43:35;13.60;57.00
27314;DHT22;14800;48.174;9.798;2023-04-24T12:46:02;13.60;58.20
27314;DHT22;14800;48.174;9.798;2023-04-24T12:48:29;13.60;58.00
27314;DHT22;14800;48.174;9.798;2023-04-24T12:50:57;13.60;58.80
27314;DHT22;14800;48.174;9.798;2023-04-24T12:53:22;13.50;58.80
27314;DHT22;14800;48.174;9.798;2023-04-24T12:55:48;13.50;58.80
27314;DHT22;14800;48.174;9.798;2023-04-24T12:58:19;13.50;58.60
27314;DHT22;14800;48.174;9.798;2023-04-24T13:00:46;13.40;58.60
27314;DHT22;14800;48.174;9.798;2023-04-24T13:03:12;13.50;58.20
27314;DHT22;14800;48.174;9.798;2023-04-24T13:05:37;13.50;58.50
27314;DHT22;14800;48.174;9.798;2023-04-24T13:08:03;13.50;58.90
27314;DHT22;14800;48.174;9.798;2023-04-24T13:10:29;13.50;58.60
27314;DHT22;14800;48.174;9.798;2023-04-24T13:12:55;13.50;57.90
27314;DHT22;14800;48.174;9.798;2023-04-24T13:15:21;13.60;58.00
27314;DHT22;14800;48.174;9.798;2023-04-24T13:17:46;13.60;57.50
27314;DHT22;14800;48.174;9.798;2023-04-24T13:20:12;13.60;57.00
27314;DHT22;14800;48.174;9.798;2023-04-24T13:22:37;13.70;57.30
27314;DHT22;14800;48.174;9.798;2023-04-24T13:25:03;13.60;56.30
27314;DHT22;14800;48.174;9.798;2023-04-24T13:27:31;13.60;56.10
27314;DHT22;14800;48.174;9.798;2023-04-24T13:29:56;13.70;56.20
27314;DHT22;14800;48.174;9.798;2023-04-24T13:32:22;13.60;56.50
27314;DHT22;14800;48.174;9.798;2023-04-24T13:34:48;13.60;57.10
27314;DHT22;14800;48.174;9.798;2023-04-24T13:37:13;13.70;57.40
27314;DHT22;14800;48.174;9.798;2023-04-24T13:39:40;13.70;56.90
27314;DHT22;14800;48.174;9.798;2023-04-24T13:42:09;13.80;56.40
27314;DHT22;14800;48.174;9.798;2023-04-24T13:44:34;13.80;55.70
27314;DHT22;14800;48.174;9.798;2023-04-24T13:47:00;13.80;56.20
27314;DHT22;14800;48.174;9.798;2023-04-24T13:49:26;13.90;56.30
27314;DHT22;14800;48.174;9.798;2023-04-24T13:51:53;13.90;55.40
27314;DHT22;14800;48.174;9.798;2023-04-24T13:54:19;13.90;55.20
27314;DHT22;14800;48.174;9.798;2023-04-24T13:56:45;13.90;55.00
27314;DHT22;14800;48.174;9.798;2023-04-24T13:59:12;13.90;54.60
27314;DHT22;14800;48.174;9.798;2023-04-24T14:01:38;13.90;54.70
27314;DHT22;14800;48.174;9.798;2023-04-24T14:04:04;13.80;54.60
27314;DHT22;14800;48.174;9.798;2023-04-24T14:06:29;13.90;54.40
27314;DHT22;14800;48.174;9.798;2023-04-24T14:08:56;13.90;54.60
27314;DHT22;14800;48.174;9.798;2023-04-24T14:11:22;13.90;55.40
27314;DHT22;14800;48.174;9.798;2023-04-24T14:13:47;14.00;55.20
27314;DHT22;14800;48.174;9.798;2023-04-24T14:16:13;14.00;54.20
27314;DHT22;14800;48.174;9.798;2023-04-24T14:18:39;14.20;53.70
27314;DHT22;14800;48.174;9.798;2023-04-24T14:21:05;14.20;54.20
27314;DHT22;14800;48.174;9.798;2023-04-24T14:23:31;14.10;54.10
27314;DHT22;14800;48.174;9.798;2023-04-24T14:25:57;14.10;53.70
27314;DHT22;14800;48.174;9.798;2023-04-24T14:28:24;14.20;53.50
27314;DHT22;14800;48.174;9.798;2023-04-24T14:30:49;14.20;54.10
27314;DHT22;14800;48.174;9.798;2023-04-24T14:33:16;14.10;53.40
27314;DHT22;14800;48.174;9.798;2023-04-24T14:35:41;14.20;53.70
27314;DHT22;14800;48.174;9.798;2023-04-24T14:38:08;14.10;53.70
27314;DHT22;14800;48.174;9.798;2023-04-24T14:40:34;14.10;53.80
27314;DHT22;14800;48.174;9.798;2023-04-24T14:43:00;14.20;53.70
27314;DHT22;14800;48.174;9.798;2023-04-24T14:45:26;14.20;53.80
27314;DHT22;14800;48.174;9.798;2023-04-24T14:47:52;14.20;54.20
27314;DHT22;14800;48.174;9.798;2023-04-24T14:50:18;14.20;54.50
27314;DHT22;14800;48.174;9.798;2023-04-24T14:52:43;14.30;54.00
27314;DHT22;14800;48.174;9.798;2023-04-24T14:55:09;14.20;53.40
27314;DHT22;14800;48.174;9.798;2023-04-24T14:57:35;14.20;53.30
27314;DHT22;14800;48.174;9.798;2023-04-24T15:00:02;14.10;54.00
27314;DHT22;14800;48.174;9.798;2023-04-24T15:02:29;14.00;53.70
27314;DHT22;14800;48.174;9.798;2023-04-24T15:04:54;14.00;54.10
27314;DHT22;14800;48.174;9.798;2023-04-24T15:07:20;14.00;54.30
27314;DHT22;14800;48.174;9.798;2023-04-24T15:09:45;13.90;54.40
27314;DHT22;14800;48.174;9.798;2023-04-24T15:12:12;13.90;54.20
27314;DHT22;14800;48.174;9.798;2023-04-24T15:14:38;13.90;54.60
27314;DHT22;14800;48.174;9.798;2023-04-24T15:17:04;13.90;55.00
27314;DHT22;14800;48.174;9.798;2023-04-24T15:19:29;14.00;54.50
27314;DHT22;14800;48.174;9.798;2023-04-24T15:21:55;13.90;54.00
27314;DHT22;14800;48.174;9.798;2023-04-24T15:24:20;14.00;54.40
27314;DHT22;14800;48.174;9.798;2023-04-24T15:26:46;14.00;55.00
27314;DHT22;14800;48.174;9.798;2023-04-24T15:29:11;14.10;54.90
27314;DHT22;14800;48.174;9.798;2023-04-24T15:31:37;14.10;55.00
27314;DHT22;14800;48.174;9.798;2023-04-24T15:34:05;14.20;54.50
27314;DHT22;14800;48.174;9.798;2023-04-24T15:36:31;14.20;54.40
27314;DHT22;14800;48.174;9.798;2023-04-24T15:38:57;14.20;54.20
27314;DHT22;14800;48.174;9.798;2023-04-24T15:41:23;14.20;53.70
27314;DHT22;14800;48.174;9.798;2023-04-24T15:43:49;14.20;53.90